createdAt,value
2017-08-21T00:01:04.585Z,70.00
2017-08-21T00:03:32.076Z,70.20
2017-08-21T00:05:59.657Z,70.80
2017-08-21T00:08:27.148Z,70.60
2017-08-21T00:10:54.649Z,71.00
2017-08-21T00:13:22.172Z,70.70
2017-08-21T00:15:49.669Z,70.20
2017-08-21T00:18:17.208Z,70.80
2017-08-21T00:20:45.461Z,71.00
2017-08-21T00:23:13.009Z,71.00
2017-08-21T00:25:40.510Z,71.50
2017-08-21T00:28:08.004Z,71.40
2017-08-21T00:30:35.520Z,71.40
2017-08-21T00:33:03.796Z,71.50
2017-08-21T00:35:31.314Z,71.50
2017-08-21T00:37:58.840Z,71.60
2017-08-21T00:40:26.325Z,71.60
2017-08-21T00:42:53.861Z,71.60
2017-08-21T00:45:21.357Z,71.60
2017-08-21T00:47:48.852Z,71.60
2017-08-21T00:50:16.367Z,71.80
2017-08-21T00:52:43.861Z,71.20
2017-08-21T00:55:11.424Z,71.50
2017-08-21T00:57:38.918Z,72.60
2017-08-21T01:00:06.409Z,71.70
2017-08-21T01:02:34.685Z,72.00
2017-08-21T01:05:02.948Z,72.60
2017-08-21T01:07:30.531Z,72.60
2017-08-21T01:09:58.817Z,71.70
2017-08-21T01:12:26.329Z,71.70
2017-08-21T01:14:53.860Z,72.60
2017-08-21T01:17:21.392Z,72.60
2017-08-21T01:19:48.942Z,73.20
2017-08-21T01:22:16.437Z,73.00
2017-08-21T01:24:43.969Z,72.30
2017-08-21T01:27:11.638Z,71.90
2017-08-21T01:29:39.174Z,72.50
2017-08-21T01:32:06.743Z,72.70
2017-08-21T01:34:34.260Z,72.60
2017-08-21T01:37:01.748Z,72.50
2017-08-21T01:39:29.260Z,72.90
2017-08-21T01:41:56.760Z,72.90
2017-08-21T01:44:24.324Z,72.60
2017-08-21T01:46:51.876Z,71.90
2017-08-21T01:49:20.133Z,72.30
2017-08-21T01:51:48.437Z,72.60
2017-08-21T01:54:15.965Z,72.60
2017-08-21T01:56:43.456Z,72.40
2017-08-21T01:59:10.949Z,72.80
2017-08-21T02:01:38.567Z,72.50
2017-08-21T02:04:06.064Z,72.60
2017-08-21T02:06:33.555Z,72.60
2017-08-21T02:09:01.849Z,72.70
2017-08-21T02:11:29.342Z,71.80
2017-08-21T02:13:56.868Z,71.20
2017-08-21T02:16:24.368Z,71.10
2017-08-21T02:18:51.864Z,71.10
2017-08-21T02:21:20.153Z,71.10
2017-08-21T02:23:47.641Z,71.10
2017-08-21T02:26:15.168Z,71.20
2017-08-21T02:28:43.420Z,71.20
2017-08-21T02:31:11.016Z,71.20
2017-08-21T02:33:38.555Z,71.20
2017-08-21T02:36:06.832Z,71.10
2017-08-21T02:38:45.930Z,70.90
2017-08-21T02:41:13.424Z,70.90
2017-08-21T02:43:40.913Z,71.20
2017-08-21T02:46:08.531Z,71.10
2017-08-21T02:48:36.793Z,71.90
2017-08-21T02:51:04.383Z,71.90
2017-08-21T02:53:31.900Z,72.10
2017-08-21T02:55:59.386Z,72.30
2017-08-21T02:58:27.676Z,71.40
2017-08-21T03:00:55.228Z,71.40
2017-08-21T03:03:22.714Z,72.10
2017-08-21T03:05:50.229Z,71.90
2017-08-21T03:08:18.479Z,70.50
2017-08-21T03:10:45.992Z,70.50
2017-08-21T03:13:13.519Z,70.00
2017-08-21T03:15:41.929Z,71.50
2017-08-21T03:18:09.413Z,70.70
2017-08-21T03:20:36.928Z,71.10
2017-08-21T03:23:04.417Z,71.10
2017-08-21T03:25:31.925Z,70.70
2017-08-21T03:28:00.207Z,70.60
2017-08-21T03:30:27.732Z,70.50
2017-08-21T03:32:55.220Z,71.30
2017-08-21T03:35:22.712Z,71.70
2017-08-21T03:37:50.368Z,71.70
2017-08-21T03:40:17.857Z,71.80
2017-08-21T03:42:45.350Z,71.60
2017-08-21T03:45:13.739Z,70.40
2017-08-21T03:47:41.234Z,70.30
2017-08-21T03:50:08.854Z,70.60
2017-08-21T03:52:36.408Z,71.10
2017-08-21T03:55:03.897Z,70.60
2017-08-21T03:57:31.423Z,70.30
2017-08-21T03:59:58.921Z,71.00
2017-08-21T04:02:26.437Z,71.50
2017-08-21T04:04:53.920Z,71.10
2017-08-21T04:07:21.564Z,71.20
2017-08-21T04:09:49.075Z,71.40
2017-08-21T04:12:16.681Z,71.10
2017-08-21T04:14:44.229Z,70.80
2017-08-21T04:17:11.726Z,70.60
2017-08-21T04:19:39.246Z,70.70
2017-08-21T04:22:06.817Z,70.90
2017-08-21T04:24:34.315Z,70.80
2017-08-21T04:27:01.820Z,70.70
2017-08-21T04:29:29.312Z,70.90
2017-08-21T04:31:56.932Z,70.80
2017-08-21T04:34:24.420Z,71.10
2017-08-21T04:36:51.909Z,71.20
2017-08-21T04:39:19.424Z,71.70
2017-08-21T04:41:46.955Z,72.20
2017-08-21T04:44:15.348Z,71.70
2017-08-21T04:46:42.864Z,71.60
2017-08-21T04:49:10.375Z,71.90
2017-08-21T04:51:37.904Z,72.20
2017-08-21T04:54:06.183Z,72.30
2017-08-21T04:56:34.430Z,72.50
2017-08-21T04:59:01.956Z,72.40
2017-08-21T05:01:29.461Z,72.60
2017-08-21T05:03:57.752Z,73.00
2017-08-21T05:06:25.248Z,72.80
2017-08-21T05:08:52.732Z,73.00
2017-08-21T05:11:20.249Z,72.90
2017-08-21T05:13:47.809Z,73.20
2017-08-21T05:16:15.337Z,72.90
2017-08-21T05:18:42.830Z,73.10
2017-08-21T05:21:10.350Z,73.00
2017-08-21T05:23:37.837Z,72.80
2017-08-21T05:26:05.340Z,72.80
2017-08-21T05:28:32.920Z,72.60
2017-08-21T05:31:32.033Z,72.90
2017-08-21T05:33:59.557Z,72.70
2017-08-21T05:36:27.040Z,72.30
2017-08-21T05:38:54.531Z,72.30
2017-08-21T05:41:22.060Z,72.40
2017-08-21T05:43:49.543Z,72.50
2017-08-21T05:46:17.063Z,72.80
2017-08-21T05:48:44.572Z,72.70
2017-08-21T05:51:12.092Z,72.80
2017-08-21T05:53:39.623Z,72.40
2017-08-21T05:56:07.125Z,72.20
2017-08-21T05:58:34.648Z,72.10
2017-08-21T06:01:02.153Z,71.90
2017-08-21T06:03:29.653Z,72.00
2017-08-21T06:05:57.182Z,71.00
2017-08-21T06:08:24.664Z,71.10
2017-08-21T06:10:52.164Z,70.80
2017-08-21T06:13:19.676Z,70.90
2017-08-21T06:15:47.182Z,70.70
2017-08-21T06:18:14.784Z,70.30
2017-08-21T06:20:42.272Z,70.60
2017-08-21T06:23:09.764Z,70.50
2017-08-21T06:25:37.267Z,70.70
2017-08-21T06:28:04.848Z,70.70
2017-08-21T06:30:32.360Z,71.00
2017-08-21T06:32:59.852Z,70.70
2017-08-21T06:35:27.341Z,70.60
2017-08-21T06:37:54.873Z,70.20
2017-08-21T06:40:22.361Z,70.50
2017-08-21T06:42:49.873Z,70.50
2017-08-21T06:45:17.397Z,69.60
2017-08-21T06:47:44.888Z,69.40
2017-08-21T06:50:12.485Z,69.50
2017-08-21T06:52:39.972Z,68.90
2017-08-21T06:55:07.481Z,68.40
2017-08-21T06:57:34.975Z,68.10
2017-08-21T07:00:02.484Z,68.00
2017-08-21T07:02:29.965Z,68.40
2017-08-21T07:04:57.500Z,68.60
2017-08-21T07:07:25.004Z,68.30
2017-08-21T07:09:52.496Z,68.30
2017-08-21T07:12:20.009Z,68.40
2017-08-21T07:14:47.492Z,68.20
2017-08-21T07:17:15.013Z,68.30
2017-08-21T07:19:42.528Z,68.20
2017-08-21T07:22:10.048Z,68.30
2017-08-21T07:24:37.537Z,68.40
2017-08-21T07:27:05.027Z,67.80
2017-08-21T07:29:32.577Z,68.50
2017-08-21T07:32:00.064Z,67.60
2017-08-21T07:34:27.610Z,67.70
2017-08-21T07:36:55.133Z,67.20
2017-08-21T07:39:22.619Z,65.90
2017-08-21T07:41:50.137Z,66.00
2017-08-21T07:44:17.634Z,66.10
2017-08-21T07:46:45.162Z,67.20
2017-08-21T07:49:12.650Z,66.40
2017-08-21T07:51:40.136Z,65.60
2017-08-21T07:54:07.666Z,65.40
2017-08-21T07:56:35.160Z,66.30
2017-08-21T07:59:02.688Z,67.00
2017-08-21T08:01:30.181Z,65.20
2017-08-21T08:03:57.783Z,64.60
2017-08-21T08:06:25.292Z,64.50
2017-08-21T08:08:52.800Z,64.60
2017-08-21T08:11:20.352Z,65.10
2017-08-21T08:13:47.844Z,64.10
2017-08-21T08:16:15.336Z,63.70
2017-08-21T08:18:42.852Z,64.20
2017-08-21T08:21:10.349Z,62.40
2017-08-21T08:23:37.966Z,61.60
2017-08-21T08:26:05.457Z,61.30
2017-08-21T08:28:32.952Z,61.30
2017-08-21T08:31:00.468Z,61.80
2017-08-21T08:33:27.967Z,61.70
2017-08-21T08:35:55.488Z,61.70
2017-08-21T08:38:22.988Z,60.90
2017-08-21T08:40:50.497Z,60.90
2017-08-21T08:43:18.100Z,60.90
2017-08-21T08:45:45.598Z,59.20
2017-08-21T08:48:13.099Z,60.10
2017-08-21T08:50:40.621Z,58.40
2017-08-21T08:53:08.115Z,58.80
2017-08-21T08:55:35.617Z,59.00
2017-08-21T08:58:03.145Z,59.20
2017-08-21T09:00:30.641Z,58.10
2017-08-21T09:02:58.274Z,56.30
2017-08-21T09:05:25.768Z,56.20
2017-08-21T09:07:53.261Z,56.80
2017-08-21T09:10:20.776Z,56.00
2017-08-21T09:12:48.376Z,55.60
2017-08-21T09:15:16.659Z,54.70
2017-08-21T09:17:44.917Z,55.20
2017-08-21T09:20:12.558Z,55.20
2017-08-21T09:22:40.086Z,53.90
2017-08-21T09:25:07.587Z,53.80
2017-08-21T09:27:35.089Z,53.50
2017-08-21T09:30:02.636Z,54.70
2017-08-21T09:32:30.148Z,53.60
2017-08-21T09:34:57.636Z,53.30
2017-08-21T09:37:25.152Z,53.00
2017-08-21T09:39:52.640Z,53.00
2017-08-21T09:42:20.146Z,52.50
2017-08-21T09:44:47.702Z,52.40
2017-08-21T09:47:15.236Z,51.30
2017-08-21T09:49:42.776Z,51.00
2017-08-21T09:52:10.271Z,51.50
2017-08-21T09:54:37.905Z,50.00
2017-08-21T09:57:05.413Z,50.50
2017-08-21T09:59:32.904Z,50.40
2017-08-21T10:02:00.406Z,49.40
2017-08-21T10:04:27.933Z,49.00
2017-08-21T10:06:55.566Z,49.10
2017-08-21T10:09:23.085Z,49.00
2017-08-21T10:11:50.582Z,49.00
2017-08-21T10:14:18.171Z,48.70
2017-08-21T10:16:45.736Z,48.60
2017-08-21T10:19:13.234Z,49.50
2017-08-21T10:21:40.749Z,48.90
2017-08-21T10:24:08.235Z,48.40
2017-08-21T10:26:35.868Z,47.40
2017-08-21T10:29:03.356Z,45.90
2017-08-21T10:31:30.852Z,44.30
2017-08-21T10:33:58.436Z,45.00
2017-08-21T10:36:25.933Z,44.70
2017-08-21T10:38:53.441Z,44.20
2017-08-21T10:41:20.987Z,43.40
2017-08-21T10:43:48.504Z,44.50
2017-08-21T10:46:16.028Z,44.80
2017-08-21T10:48:43.516Z,44.80
2017-08-21T10:51:11.037Z,44.40
2017-08-21T10:53:38.528Z,44.40
2017-08-21T10:56:06.049Z,43.90
2017-08-21T10:58:33.562Z,42.10
2017-08-21T11:01:01.051Z,41.70
2017-08-21T11:03:28.561Z,40.40
2017-08-21T11:05:56.064Z,40.70
2017-08-21T11:08:23.653Z,41.00
2017-08-21T11:10:51.145Z,39.90
2017-08-21T11:13:18.644Z,39.20
2017-08-21T11:15:46.201Z,36.80
2017-08-21T11:18:13.688Z,36.00
2017-08-21T11:20:41.193Z,37.50
2017-08-21T11:23:08.712Z,36.90
2017-08-21T11:25:36.202Z,37.40
2017-08-21T11:28:03.726Z,38.60
2017-08-21T11:30:31.250Z,39.40
2017-08-21T11:32:58.791Z,39.70
2017-08-21T11:35:26.281Z,38.20
2017-08-21T11:37:53.774Z,38.00
2017-08-21T11:40:21.309Z,37.90
2017-08-21T11:42:48.846Z,36.90
2017-08-21T11:45:16.373Z,37.70
2017-08-21T11:47:43.871Z,37.70
2017-08-21T11:50:11.379Z,38.20
2017-08-21T11:52:38.925Z,37.70
2017-08-21T11:55:06.427Z,37.60
2017-08-21T11:57:33.984Z,38.00
2017-08-21T12:00:01.481Z,37.60
2017-08-21T12:02:28.990Z,37.30
2017-08-21T12:04:56.589Z,35.50
2017-08-21T12:07:24.073Z,35.20
2017-08-21T12:09:51.583Z,35.90
2017-08-21T12:12:19.104Z,36.50
2017-08-21T12:14:46.640Z,36.70
2017-08-21T12:17:14.123Z,36.90
2017-08-21T12:19:41.640Z,35.90
2017-08-21T12:22:09.157Z,36.00
2017-08-21T12:24:36.653Z,35.00
2017-08-21T12:27:04.177Z,34.30
2017-08-21T12:29:31.733Z,34.60
2017-08-21T12:31:59.225Z,34.60
2017-08-21T12:34:26.768Z,34.60
2017-08-21T12:36:54.273Z,35.90
2017-08-21T12:39:21.821Z,36.90
2017-08-21T12:41:49.310Z,36.50
2017-08-21T12:44:16.809Z,36.00
2017-08-21T12:46:44.372Z,37.30
2017-08-21T12:49:11.942Z,36.70
2017-08-21T12:51:39.424Z,37.80
2017-08-21T12:54:07.030Z,38.10
2017-08-21T12:56:34.528Z,37.70
2017-08-21T12:59:02.069Z,37.50
2017-08-21T13:01:29.564Z,36.80
2017-08-21T13:03:57.102Z,37.10
2017-08-21T13:06:24.601Z,37.20
2017-08-21T13:08:52.103Z,36.70
2017-08-21T13:11:19.622Z,37.20
2017-08-21T13:13:47.122Z,36.60
2017-08-21T13:16:14.621Z,36.30
2017-08-21T13:18:42.151Z,35.20
2017-08-21T13:21:09.645Z,35.80
2017-08-21T13:23:37.165Z,34.70
2017-08-21T13:26:04.656Z,33.90
2017-08-21T13:28:32.156Z,33.60
2017-08-21T13:30:59.668Z,33.60
2017-08-21T13:33:27.155Z,33.50
2017-08-21T13:35:54.700Z,33.10
2017-08-21T13:38:22.200Z,33.30
2017-08-21T13:40:49.699Z,33.20
2017-08-21T13:43:17.228Z,32.00
2017-08-21T13:45:44.826Z,30.90
2017-08-21T13:48:12.336Z,32.80
2017-08-21T13:50:39.887Z,32.60
2017-08-21T13:53:07.401Z,33.10
2017-08-21T13:55:34.954Z,32.30
2017-08-21T13:58:02.473Z,32.90
2017-08-21T14:00:29.971Z,32.60
2017-08-21T14:02:57.569Z,32.80
2017-08-21T14:05:25.061Z,31.80
2017-08-21T14:07:52.586Z,31.30
2017-08-21T14:10:20.077Z,31.30
2017-08-21T14:12:47.586Z,30.70
2017-08-21T14:15:15.101Z,31.10
2017-08-21T14:17:42.604Z,30.20
2017-08-21T14:20:10.138Z,29.30
2017-08-21T14:22:37.632Z,30.50
2017-08-21T14:25:05.155Z,31.40
2017-08-21T14:27:32.693Z,30.80
2017-08-21T14:30:00.202Z,30.20
2017-08-21T14:32:27.717Z,31.40
2017-08-21T14:34:55.216Z,31.00
2017-08-21T14:37:22.749Z,32.60
2017-08-21T14:39:50.380Z,32.00
2017-08-21T14:42:17.910Z,32.40
2017-08-21T14:44:45.500Z,31.60
2017-08-21T14:47:13.056Z,32.80
2017-08-21T14:49:40.566Z,32.40
2017-08-21T14:52:08.056Z,32.20
2017-08-21T14:54:35.548Z,32.00
2017-08-21T14:57:03.069Z,32.20
2017-08-21T14:59:30.600Z,32.00
2017-08-21T15:01:58.129Z,32.10
2017-08-21T15:04:25.625Z,31.90
2017-08-21T15:06:53.154Z,32.30
2017-08-21T15:09:20.653Z,32.40
2017-08-21T15:11:48.165Z,32.60
2017-08-21T15:14:15.685Z,32.70
2017-08-21T15:16:43.193Z,32.10
2017-08-21T15:19:10.708Z,33.00
2017-08-21T15:21:38.238Z,33.60
2017-08-21T15:24:05.728Z,33.90
2017-08-21T15:26:33.228Z,34.30
2017-08-21T15:29:00.762Z,34.20
2017-08-21T15:31:28.403Z,34.30
2017-08-21T15:33:55.900Z,34.90
2017-08-21T15:36:23.425Z,34.30
2017-08-21T15:38:50.910Z,34.90
2017-08-21T15:41:18.401Z,34.90
2017-08-21T15:43:45.932Z,34.60
2017-08-21T15:46:13.447Z,34.80
2017-08-21T15:48:40.980Z,35.30
2017-08-21T15:51:08.481Z,36.10
2017-08-21T15:53:35.977Z,35.00
2017-08-21T15:56:03.511Z,35.20
2017-08-21T15:58:31.004Z,35.30
2017-08-21T16:00:59.226Z,36.50
2017-08-21T16:03:26.772Z,36.70
2017-08-21T16:05:54.306Z,36.90
2017-08-21T16:08:21.828Z,36.90
2017-08-21T16:10:49.324Z,37.00
2017-08-21T16:13:16.853Z,36.60
2017-08-21T16:15:44.467Z,36.10
2017-08-21T16:18:11.961Z,36.50
2017-08-21T16:20:39.490Z,36.40
2017-08-21T16:23:06.985Z,36.10
2017-08-21T16:25:34.595Z,36.80
2017-08-21T16:28:02.101Z,36.90
2017-08-21T16:30:29.595Z,36.80
2017-08-21T16:32:57.130Z,36.80
2017-08-21T16:35:24.643Z,36.90
2017-08-21T16:37:52.178Z,36.30
2017-08-21T16:40:19.699Z,37.10
2017-08-21T16:42:47.218Z,37.20
2017-08-21T16:45:14.724Z,38.10
2017-08-21T16:47:42.228Z,39.30
2017-08-21T16:50:09.784Z,39.30
2017-08-21T16:52:37.309Z,38.80
2017-08-21T16:55:04.802Z,38.60
2017-08-21T16:57:32.324Z,39.50
2017-08-21T16:59:59.822Z,39.50
2017-08-21T17:02:27.386Z,39.80
2017-08-21T17:04:54.888Z,39.30
2017-08-21T17:07:22.429Z,39.40
2017-08-21T17:09:49.926Z,39.60
2017-08-21T17:12:17.424Z,39.10
2017-08-21T17:14:44.954Z,40.70
2017-08-21T17:17:12.465Z,40.60
2017-08-21T17:19:39.964Z,41.10
2017-08-21T17:22:07.504Z,41.10
2017-08-21T17:24:35.009Z,41.20
2017-08-21T17:27:02.525Z,41.80
2017-08-21T17:29:30.041Z,41.30
2017-08-21T17:31:57.586Z,41.40
2017-08-21T17:34:25.189Z,41.90
2017-08-21T17:36:52.761Z,42.20
2017-08-21T17:39:20.268Z,43.20
2017-08-21T17:41:47.785Z,42.80
2017-08-21T17:44:15.316Z,42.70
2017-08-21T17:46:42.961Z,42.60
2017-08-21T17:49:10.521Z,43.70
2017-08-21T17:51:38.028Z,43.30
2017-08-21T17:54:05.556Z,44.00
2017-08-21T17:56:33.077Z,43.20
2017-08-21T17:59:00.582Z,44.50
2017-08-21T18:01:28.122Z,44.80
2017-08-21T18:03:55.645Z,44.70
2017-08-21T18:06:23.138Z,45.00
2017-08-21T18:08:50.658Z,45.70
2017-08-21T18:11:18.165Z,46.40
2017-08-21T18:13:45.702Z,47.20
2017-08-21T18:16:13.273Z,47.10
2017-08-21T18:18:40.828Z,48.30
2017-08-21T18:21:08.341Z,48.90
2017-08-21T18:23:35.849Z,49.30
2017-08-21T18:26:03.366Z,49.80
2017-08-21T18:28:30.873Z,50.50
2017-08-21T18:30:58.497Z,50.60
2017-08-21T18:33:26.060Z,50.60
2017-08-21T18:35:53.553Z,51.50
2017-08-21T18:38:21.110Z,50.30
2017-08-21T18:40:48.612Z,50.40
2017-08-21T18:43:16.214Z,49.50
2017-08-21T18:45:43.758Z,49.50
2017-08-21T18:48:11.261Z,49.70
2017-08-21T18:50:38.789Z,50.20
2017-08-21T18:53:06.319Z,50.60
2017-08-21T18:55:33.869Z,51.00
2017-08-21T18:58:01.371Z,52.00
2017-08-21T19:00:28.898Z,51.40
2017-08-21T19:02:56.429Z,51.10
2017-08-21T19:05:23.951Z,51.20
2017-08-21T19:07:51.489Z,51.60
2017-08-21T19:10:18.995Z,51.80
2017-08-21T19:12:46.487Z,52.30
2017-08-21T19:15:14.058Z,52.50
2017-08-21T19:17:41.557Z,52.60
2017-08-21T19:20:09.062Z,52.60
2017-08-21T19:22:36.593Z,52.60
2017-08-21T19:25:04.089Z,52.80
2017-08-21T19:27:31.628Z,52.90
2017-08-21T19:29:59.140Z,53.10
2017-08-21T19:32:26.643Z,53.10
2017-08-21T19:34:54.164Z,53.00
2017-08-21T19:37:21.692Z,52.90
2017-08-21T19:39:49.245Z,53.00
2017-08-21T19:42:16.812Z,53.30
2017-08-21T19:44:44.366Z,53.40
2017-08-21T19:47:11.884Z,53.60
2017-08-21T19:49:39.389Z,53.70
2017-08-21T19:52:06.954Z,53.70
2017-08-21T19:54:34.456Z,53.70
2017-08-21T19:57:01.965Z,54.00
2017-08-21T19:59:29.503Z,54.30
2017-08-21T20:01:57.009Z,54.40
2017-08-21T20:04:24.617Z,54.90
2017-08-21T20:06:52.138Z,55.10
2017-08-21T20:09:19.654Z,55.20
2017-08-21T20:11:47.182Z,55.30
2017-08-21T20:14:14.758Z,55.50
2017-08-21T20:16:42.282Z,55.40
2017-08-21T20:19:09.806Z,55.50
2017-08-21T20:21:37.342Z,55.50
2017-08-21T20:24:04.837Z,55.40
2017-08-21T20:26:33.337Z,55.80
2017-08-21T20:29:00.849Z,55.70
2017-08-21T20:31:28.398Z,55.70
2017-08-21T20:33:55.925Z,55.70
2017-08-21T20:36:23.492Z,55.80
2017-08-21T20:38:51.013Z,55.70
2017-08-21T20:41:18.509Z,55.70
2017-08-21T20:43:46.033Z,55.80
2017-08-21T20:46:13.545Z,56.00
2017-08-21T20:48:41.069Z,56.80
2017-08-21T20:51:08.628Z,56.20
2017-08-21T20:53:36.166Z,56.50
2017-08-21T20:56:03.665Z,57.10
2017-08-21T20:58:31.243Z,56.40
2017-08-21T21:00:58.773Z,56.50
2017-08-21T21:03:26.306Z,56.80
2017-08-21T21:05:53.798Z,57.10
2017-08-21T21:08:21.289Z,57.50
2017-08-21T21:10:48.804Z,57.60
2017-08-21T21:13:16.304Z,57.60
2017-08-21T21:15:43.849Z,57.80
2017-08-21T21:18:11.345Z,57.80
2017-08-21T21:20:39.625Z,57.80
2017-08-21T21:23:07.146Z,57.70
2017-08-21T21:25:34.639Z,57.80
2017-08-21T21:28:02.136Z,57.70
2017-08-21T21:30:29.665Z,57.70
2017-08-21T21:32:57.184Z,57.70
2017-08-21T21:35:24.731Z,57.90
2017-08-21T21:37:52.241Z,57.90
2017-08-21T21:40:19.735Z,58.20
2017-08-21T21:42:47.282Z,58.40
2017-08-21T21:45:14.778Z,58.60
2017-08-21T21:47:42.375Z,58.80
2017-08-21T21:50:10.041Z,58.80
2017-08-21T21:52:37.553Z,58.90
2017-08-21T21:55:05.073Z,58.60
2017-08-21T21:57:32.579Z,58.60
2017-08-21T22:00:00.088Z,58.40
2017-08-21T22:02:27.596Z,58.30
2017-08-21T22:04:55.113Z,58.10
2017-08-21T22:07:22.677Z,58.70
2017-08-21T22:09:50.173Z,58.10
2017-08-21T22:12:17.709Z,58.10
2017-08-21T22:14:45.213Z,58.10
2017-08-21T22:17:12.744Z,57.90
2017-08-21T22:19:40.338Z,57.90
2017-08-21T22:22:07.965Z,58.10
2017-08-21T22:24:35.513Z,58.10
2017-08-21T22:27:03.020Z,58.10
2017-08-21T22:29:30.561Z,58.20
2017-08-21T22:31:58.096Z,58.30
2017-08-21T22:34:25.684Z,58.40
2017-08-21T22:36:53.227Z,58.40
2017-08-21T22:39:20.748Z,58.50
2017-08-21T22:41:48.350Z,58.40
2017-08-21T22:44:15.845Z,58.50
2017-08-21T22:46:43.349Z,58.50
2017-08-21T22:49:10.864Z,58.60
2017-08-21T22:51:38.425Z,58.60
2017-08-21T22:54:05.924Z,58.70
2017-08-21T22:56:33.417Z,58.70
2017-08-21T22:59:00.923Z,58.80
2017-08-21T23:01:28.514Z,58.90
2017-08-21T23:03:56.075Z,59.50
2017-08-21T23:06:23.577Z,59.10
2017-08-21T23:08:51.064Z,59.20
2017-08-21T23:11:18.641Z,59.20
2017-08-21T23:13:46.136Z,59.20
2017-08-21T23:16:13.753Z,59.20
2017-08-21T23:18:41.250Z,59.10
2017-08-21T23:21:08.772Z,59.20
2017-08-21T23:23:36.346Z,59.10
2017-08-21T23:26:03.875Z,59.20
2017-08-21T23:28:31.472Z,59.30
2017-08-21T23:30:58.968Z,59.40
2017-08-21T23:33:26.464Z,59.50
2017-08-21T23:35:53.983Z,59.30
2017-08-21T23:38:21.488Z,59.20
2017-08-21T23:40:48.997Z,59.20
2017-08-21T23:43:16.507Z,59.30
2017-08-21T23:45:44.050Z,59.30
2017-08-21T23:48:11.590Z,59.40
2017-08-21T23:50:39.079Z,59.40
2017-08-21T23:53:06.600Z,59.40
2017-08-21T23:55:34.094Z,59.50
2017-08-21T23:58:01.640Z,59.40
